sensor_id;sensor_type;location;lat;lon;timestamp;P1;durP1;ratioP1;P2;durP2;ratioP2
12591;SDS011;6361;52.120;5.108;2024-03-06T00:01:30;27.27;;;20.70;;
12591;SDS011;6361;52.120;5.108;2024-03-06T00:03:56;27.67;;;21.40;;
12591;SDS011;6361;52.120;5.108;2024-03-06T00:06:21;27.45;;;20.70;;
12591;SDS011;6361;52.120;5.108;2024-03-06T00:08:47;33.13;;;22.45;;
12591;SDS011;6361;52.120;5.108;2024-03-06T00:11:12;30.40;;;21.45;;
12591;SDS011;6361;52.120;5.108;2024-03-06T00:13:38;28.00;;;21.25;;
12591;SDS011;6361;52.120;5.108;2024-03-06T00:16:03;29.52;;;22.05;;
12591;SDS011;6361;52.120;5.108;2024-03-06T00:18:29;28.55;;;21.98;;
12591;SDS011;6361;52.120;5.108;2024-03-06T00:20:54;28.58;;;20.73;;
12591;SDS011;6361;52.120;5.108;2024-03-06T00:23:19;28.73;;;21.00;;
12591;SDS011;6361;52.120;5.108;2024-03-06T00:25:45;28.80;;;21.52;;
12591;SDS011;6361;52.120;5.108;2024-03-06T00:28:10;31.63;;;22.00;;
12591;SDS011;6361;52.120;5.108;2024-03-06T00:30:35;31.85;;;22.70;;
12591;SDS011;6361;52.120;5.108;2024-03-06T00:33:01;33.60;;;23.00;;
12591;SDS011;6361;52.120;5.108;2024-03-06T00:35:26;29.88;;;21.38;;
12591;SDS011;6361;52.120;5.108;2024-03-06T00:37:53;33.65;;;23.50;;
12591;SDS011;6361;52.120;5.108;2024-03-06T00:40:19;31.98;;;23.42;;
12591;SDS011;6361;52.120;5.108;2024-03-06T00:42:44;32.53;;;23.88;;
12591;SDS011;6361;52.120;5.108;2024-03-06T00:45:10;31.58;;;23.35;;
12591;SDS011;6361;52.120;5.108;2024-03-06T00:47:36;33.60;;;24.00;;
12591;SDS011;6361;52.120;5.108;2024-03-06T00:50:01;33.20;;;23.38;;
12591;SDS011;6361;52.120;5.108;2024-03-06T00:52:26;26.63;;;20.35;;
12591;SDS011;6361;52.120;5.108;2024-03-06T00:54:52;30.45;;;22.40;;
12591;SDS011;6361;52.120;5.108;2024-03-06T00:57:17;30.95;;;23.17;;
12591;SDS011;6361;52.120;5.108;2024-03-06T00:59:43;30.23;;;22.30;;
12591;SDS011;6361;52.120;5.108;2024-03-06T01:02:08;32.25;;;22.83;;
12591;SDS011;6361;52.120;5.108;2024-03-06T01:04:33;34.05;;;23.98;;
12591;SDS011;6361;52.120;5.108;2024-03-06T01:06:59;31.63;;;22.27;;
12591;SDS011;6361;52.120;5.108;2024-03-06T01:09:24;29.98;;;22.70;;
12591;SDS011;6361;52.120;5.108;2024-03-06T01:11:50;32.97;;;24.20;;
12591;SDS011;6361;52.120;5.108;2024-03-06T01:14:15;36.10;;;24.45;;
12591;SDS011;6361;52.120;5.108;2024-03-06T01:16:41;32.65;;;22.90;;
12591;SDS011;6361;52.120;5.108;2024-03-06T01:19:20;32.83;;;23.20;;
12591;SDS011;6361;52.120;5.108;2024-03-06T01:21:46;33.60;;;23.67;;
12591;SDS011;6361;52.120;5.108;2024-03-06T01:24:13;31.15;;;22.20;;
12591;SDS011;6361;52.120;5.108;2024-03-06T01:26:39;28.73;;;21.17;;
12591;SDS011;6361;52.120;5.108;2024-03-06T01:29:05;27.52;;;21.13;;
12591;SDS011;6361;52.120;5.108;2024-03-06T01:31:31;30.58;;;21.70;;
12591;SDS011;6361;52.120;5.108;2024-03-06T01:33:56;28.80;;;20.70;;
12591;SDS011;6361;52.120;5.108;2024-03-06T01:36:21;25.30;;;19.00;;
12591;SDS011;6361;52.120;5.108;2024-03-06T01:38:47;25.00;;;18.33;;
12591;SDS011;6361;52.120;5.108;2024-03-06T01:41:12;27.85;;;19.85;;
12591;SDS011;6361;52.120;5.108;2024-03-06T01:43:38;30.42;;;20.00;;
12591;SDS011;6361;52.120;5.108;2024-03-06T01:46:04;27.10;;;20.15;;
12591;SDS011;6361;52.120;5.108;2024-03-06T01:48:30;30.55;;;20.38;;
12591;SDS011;6361;52.120;5.108;2024-03-06T01:50:56;30.73;;;21.02;;
12591;SDS011;6361;52.120;5.108;2024-03-06T01:53:23;28.90;;;21.35;;
12591;SDS011;6361;52.120;5.108;2024-03-06T01:55:51;32.83;;;21.90;;
12591;SDS011;6361;52.120;5.108;2024-03-06T01:58:17;32.90;;;22.60;;
12591;SDS011;6361;52.120;5.108;2024-03-06T02:00:42;32.90;;;23.02;;
12591;SDS011;6361;52.120;5.108;2024-03-06T02:03:08;34.72;;;23.20;;
12591;SDS011;6361;52.120;5.108;2024-03-06T02:05:33;30.92;;;22.25;;
12591;SDS011;6361;52.120;5.108;2024-03-06T02:07:59;34.90;;;23.52;;
12591;SDS011;6361;52.120;5.108;2024-03-06T02:10:25;35.13;;;23.35;;
12591;SDS011;6361;52.120;5.108;2024-03-06T02:12:52;32.50;;;22.55;;
12591;SDS011;6361;52.120;5.108;2024-03-06T02:15:18;31.60;;;21.73;;
12591;SDS011;6361;52.120;5.108;2024-03-06T02:17:43;32.25;;;23.45;;
12591;SDS011;6361;52.120;5.108;2024-03-06T02:20:09;33.38;;;22.50;;
12591;SDS011;6361;52.120;5.108;2024-03-06T02:22:37;31.60;;;23.27;;
12591;SDS011;6361;52.120;5.108;2024-03-06T02:25:04;37.42;;;23.85;;
12591;SDS011;6361;52.120;5.108;2024-03-06T02:27:29;34.20;;;23.27;;
12591;SDS011;6361;52.120;5.108;2024-03-06T02:29:56;34.97;;;24.40;;
12591;SDS011;6361;52.120;5.108;2024-03-06T02:32:21;30.58;;;22.20;;
12591;SDS011;6361;52.120;5.108;2024-03-06T02:34:46;34.33;;;24.27;;
12591;SDS011;6361;52.120;5.108;2024-03-06T02:37:13;30.85;;;22.80;;
12591;SDS011;6361;52.120;5.108;2024-03-06T02:39:38;36.70;;;24.55;;
12591;SDS011;6361;52.120;5.108;2024-03-06T02:42:04;38.13;;;25.75;;
12591;SDS011;6361;52.120;5.108;2024-03-06T02:44:29;38.15;;;25.50;;
12591;SDS011;6361;52.120;5.108;2024-03-06T02:46:55;36.75;;;25.83;;
12591;SDS011;6361;52.120;5.108;2024-03-06T02:49:20;38.25;;;25.50;;
12591;SDS011;6361;52.120;5.108;2024-03-06T02:51:45;35.95;;;25.50;;
12591;SDS011;6361;52.120;5.108;2024-03-06T02:54:11;35.58;;;25.38;;
12591;SDS011;6361;52.120;5.108;2024-03-06T02:56:36;37.08;;;26.27;;
12591;SDS011;6361;52.120;5.108;2024-03-06T02:59:01;39.35;;;26.35;;
12591;SDS011;6361;52.120;5.108;2024-03-06T03:01:28;33.67;;;23.85;;
12591;SDS011;6361;52.120;5.108;2024-03-06T03:03:54;37.38;;;25.95;;
12591;SDS011;6361;52.120;5.108;2024-03-06T03:06:20;37.35;;;26.50;;
12591;SDS011;6361;52.120;5.108;2024-03-06T03:08:46;34.10;;;25.10;;
12591;SDS011;6361;52.120;5.108;2024-03-06T03:11:12;38.95;;;26.80;;
12591;SDS011;6361;52.120;5.108;2024-03-06T03:13:37;41.05;;;27.20;;
12591;SDS011;6361;52.120;5.108;2024-03-06T03:16:03;38.30;;;26.10;;
12591;SDS011;6361;52.120;5.108;2024-03-06T03:18:29;40.13;;;27.33;;
12591;SDS011;6361;52.120;5.108;2024-03-06T03:20:54;42.33;;;28.25;;
12591;SDS011;6361;52.120;5.108;2024-03-06T03:23:20;40.13;;;28.20;;
12591;SDS011;6361;52.120;5.108;2024-03-06T03:25:47;38.47;;;27.75;;
12591;SDS011;6361;52.120;5.108;2024-03-06T03:28:13;40.65;;;28.30;;
12591;SDS011;6361;52.120;5.108;2024-03-06T03:30:39;39.83;;;28.13;;
12591;SDS011;6361;52.120;5.108;2024-03-06T03:33:04;39.38;;;28.17;;
12591;SDS011;6361;52.120;5.108;2024-03-06T03:35:30;38.90;;;27.15;;
12591;SDS011;6361;52.120;5.108;2024-03-06T03:37:56;40.63;;;28.38;;
12591;SDS011;6361;52.120;5.108;2024-03-06T03:40:22;38.50;;;28.10;;
12591;SDS011;6361;52.120;5.108;2024-03-06T03:42:48;39.50;;;27.70;;
12591;SDS011;6361;52.120;5.108;2024-03-06T03:45:13;39.95;;;27.70;;
12591;SDS011;6361;52.120;5.108;2024-03-06T03:47:39;42.30;;;29.27;;
12591;SDS011;6361;52.120;5.108;2024-03-06T03:50:05;41.83;;;27.48;;
12591;SDS011;6361;52.120;5.108;2024-03-06T03:52:31;41.10;;;27.67;;
12591;SDS011;6361;52.120;5.108;2024-03-06T03:54:56;41.63;;;28.23;;
12591;SDS011;6361;52.120;5.108;2024-03-06T03:57:22;40.15;;;29.02;;
12591;SDS011;6361;52.120;5.108;2024-03-06T03:59:47;39.55;;;27.98;;
12591;SDS011;6361;52.120;5.108;2024-03-06T04:02:12;41.95;;;28.60;;
12591;SDS011;6361;52.120;5.108;2024-03-06T04:04:38;44.83;;;29.20;;
12591;SDS011;6361;52.120;5.108;2024-03-06T04:07:03;40.85;;;29.17;;
12591;SDS011;6361;52.120;5.108;2024-03-06T04:09:30;41.53;;;29.45;;
12591;SDS011;6361;52.120;5.108;2024-03-06T04:11:56;42.85;;;28.52;;
12591;SDS011;6361;52.120;5.108;2024-03-06T04:14:21;43.75;;;30.15;;
12591;SDS011;6361;52.120;5.108;2024-03-06T04:16:47;46.30;;;30.42;;
12591;SDS011;6361;52.120;5.108;2024-03-06T04:19:13;43.17;;;30.70;;
12591;SDS011;6361;52.120;5.108;2024-03-06T04:21:42;43.47;;;30.83;;
12591;SDS011;6361;52.120;5.108;2024-03-06T04:24:07;44.03;;;30.40;;
12591;SDS011;6361;52.120;5.108;2024-03-06T04:26:33;45.72;;;30.95;;
12591;SDS011;6361;52.120;5.108;2024-03-06T04:28:58;43.78;;;30.33;;
12591;SDS011;6361;52.120;5.108;2024-03-06T04:31:23;46.67;;;32.50;;
12591;SDS011;6361;52.120;5.108;2024-03-06T04:33:49;49.15;;;33.08;;
12591;SDS011;6361;52.120;5.108;2024-03-06T04:36:15;49.22;;;32.38;;
12591;SDS011;6361;52.120;5.108;2024-03-06T04:38:40;48.65;;;32.58;;
12591;SDS011;6361;52.120;5.108;2024-03-06T04:41:06;47.47;;;32.67;;
12591;SDS011;6361;52.120;5.108;2024-03-06T04:43:32;49.92;;;33.78;;
12591;SDS011;6361;52.120;5.108;2024-03-06T04:45:57;52.00;;;33.95;;
12591;SDS011;6361;52.120;5.108;2024-03-06T04:48:22;47.95;;;33.30;;
12591;SDS011;6361;52.120;5.108;2024-03-06T04:50:48;51.15;;;34.08;;
12591;SDS011;6361;52.120;5.108;2024-03-06T04:53:14;51.80;;;34.03;;
12591;SDS011;6361;52.120;5.108;2024-03-06T04:55:39;50.90;;;34.65;;
12591;SDS011;6361;52.120;5.108;2024-03-06T04:58:04;50.17;;;34.55;;
12591;SDS011;6361;52.120;5.108;2024-03-06T05:00:30;51.65;;;33.90;;
12591;SDS011;6361;52.120;5.108;2024-03-06T05:02:55;50.88;;;34.30;;
12591;SDS011;6361;52.120;5.108;2024-03-06T05:05:21;51.88;;;35.40;;
12591;SDS011;6361;52.120;5.108;2024-03-06T05:07:47;49.72;;;33.30;;
12591;SDS011;6361;52.120;5.108;2024-03-06T05:10:13;49.88;;;33.63;;
12591;SDS011;6361;52.120;5.108;2024-03-06T05:12:38;51.25;;;35.55;;
12591;SDS011;6361;52.120;5.108;2024-03-06T05:15:04;53.58;;;35.45;;
12591;SDS011;6361;52.120;5.108;2024-03-06T05:17:30;50.60;;;35.45;;
12591;SDS011;6361;52.120;5.108;2024-03-06T05:19:55;54.80;;;34.88;;
12591;SDS011;6361;52.120;5.108;2024-03-06T05:22:20;53.88;;;35.78;;
12591;SDS011;6361;52.120;5.108;2024-03-06T05:24:46;53.72;;;35.03;;
12591;SDS011;6361;52.120;5.108;2024-03-06T05:27:12;52.55;;;36.08;;
12591;SDS011;6361;52.120;5.108;2024-03-06T05:29:42;52.45;;;36.00;;
12591;SDS011;6361;52.120;5.108;2024-03-06T05:32:08;52.75;;;36.20;;
12591;SDS011;6361;52.120;5.108;2024-03-06T05:34:33;52.65;;;35.55;;
12591;SDS011;6361;52.120;5.108;2024-03-06T05:36:59;52.53;;;35.55;;
12591;SDS011;6361;52.120;5.108;2024-03-06T05:39:24;54.90;;;36.38;;
12591;SDS011;6361;52.120;5.108;2024-03-06T05:41:50;53.50;;;35.05;;
12591;SDS011;6361;52.120;5.108;2024-03-06T05:44:15;57.35;;;36.20;;
12591;SDS011;6361;52.120;5.108;2024-03-06T05:46:41;54.55;;;36.28;;
12591;SDS011;6361;52.120;5.108;2024-03-06T05:49:06;56.53;;;37.38;;
12591;SDS011;6361;52.120;5.108;2024-03-06T05:51:32;53.10;;;35.75;;
12591;SDS011;6361;52.120;5.108;2024-03-06T05:53:57;59.13;;;37.42;;
12591;SDS011;6361;52.120;5.108;2024-03-06T05:56:23;57.13;;;35.88;;
12591;SDS011;6361;52.120;5.108;2024-03-06T05:58:48;55.80;;;37.33;;
12591;SDS011;6361;52.120;5.108;2024-03-06T06:01:17;59.38;;;36.85;;
12591;SDS011;6361;52.120;5.108;2024-03-06T06:03:47;55.97;;;37.03;;
12591;SDS011;6361;52.120;5.108;2024-03-06T06:06:16;59.20;;;37.05;;
12591;SDS011;6361;52.120;5.108;2024-03-06T06:08:42;72.47;;;37.90;;
12591;SDS011;6361;52.120;5.108;2024-03-06T06:11:09;57.88;;;37.45;;
12591;SDS011;6361;52.120;5.108;2024-03-06T06:13:34;61.63;;;38.38;;
12591;SDS011;6361;52.120;5.108;2024-03-06T06:16:00;62.60;;;37.28;;
12591;SDS011;6361;52.120;5.108;2024-03-06T06:18:28;63.58;;;38.53;;
12591;SDS011;6361;52.120;5.108;2024-03-06T06:20:53;49.70;;;32.00;;
12591;SDS011;6361;52.120;5.108;2024-03-06T06:23:18;55.40;;;33.83;;
12591;SDS011;6361;52.120;5.108;2024-03-06T06:25:44;55.08;;;36.22;;
12591;SDS011;6361;52.120;5.108;2024-03-06T06:28:09;51.17;;;33.60;;
12591;SDS011;6361;52.120;5.108;2024-03-06T06:30:35;51.33;;;34.97;;
12591;SDS011;6361;52.120;5.108;2024-03-06T06:33:01;57.15;;;34.97;;
12591;SDS011;6361;52.120;5.108;2024-03-06T06:35:26;52.55;;;33.67;;
12591;SDS011;6361;52.120;5.108;2024-03-06T06:37:52;58.28;;;34.67;;
12591;SDS011;6361;52.120;5.108;2024-03-06T06:40:17;49.65;;;32.92;;
12591;SDS011;6361;52.120;5.108;2024-03-06T06:42:45;52.03;;;33.50;;
12591;SDS011;6361;52.120;5.108;2024-03-06T06:45:20;55.20;;;33.08;;
12591;SDS011;6361;52.120;5.108;2024-03-06T06:47:47;55.65;;;34.55;;
12591;SDS011;6361;52.120;5.108;2024-03-06T06:50:13;62.97;;;35.03;;
12591;SDS011;6361;52.120;5.108;2024-03-06T06:52:38;53.85;;;34.47;;
12591;SDS011;6361;52.120;5.108;2024-03-06T06:55:04;54.78;;;32.25;;
12591;SDS011;6361;52.120;5.108;2024-03-06T06:57:30;50.85;;;32.72;;
12591;SDS011;6361;52.120;5.108;2024-03-06T06:59:56;56.90;;;34.90;;
12591;SDS011;6361;52.120;5.108;2024-03-06T07:02:21;52.38;;;34.15;;
12591;SDS011;6361;52.120;5.108;2024-03-06T07:04:47;51.05;;;34.80;;
12591;SDS011;6361;52.120;5.108;2024-03-06T07:07:13;72.72;;;35.75;;
12591;SDS011;6361;52.120;5.108;2024-03-06T07:09:38;67.07;;;33.50;;
12591;SDS011;6361;52.120;5.108;2024-03-06T07:12:05;53.08;;;34.63;;
12591;SDS011;6361;52.120;5.108;2024-03-06T07:14:32;50.80;;;34.13;;
12591;SDS011;6361;52.120;5.108;2024-03-06T07:16:58;64.05;;;35.70;;
12591;SDS011;6361;52.120;5.108;2024-03-06T07:19:23;54.78;;;34.95;;
12591;SDS011;6361;52.120;5.108;2024-03-06T07:21:48;54.08;;;35.97;;
12591;SDS011;6361;52.120;5.108;2024-03-06T07:24:14;47.03;;;30.73;;
12591;SDS011;6361;52.120;5.108;2024-03-06T07:26:39;44.13;;;29.55;;
12591;SDS011;6361;52.120;5.108;2024-03-06T07:29:04;53.55;;;34.30;;
12591;SDS011;6361;52.120;5.108;2024-03-06T07:31:37;53.30;;;36.03;;
12591;SDS011;6361;52.120;5.108;2024-03-06T07:34:03;56.97;;;36.42;;
12591;SDS011;6361;52.120;5.108;2024-03-06T07:36:29;54.97;;;35.85;;
12591;SDS011;6361;52.120;5.108;2024-03-06T07:38:54;55.40;;;36.97;;
12591;SDS011;6361;52.120;5.108;2024-03-06T07:41:19;53.30;;;34.70;;
12591;SDS011;6361;52.120;5.108;2024-03-06T07:43:45;55.25;;;36.58;;
12591;SDS011;6361;52.120;5.108;2024-03-06T07:46:10;52.03;;;34.20;;
12591;SDS011;6361;52.120;5.108;2024-03-06T07:48:37;54.00;;;35.35;;
12591;SDS011;6361;52.120;5.108;2024-03-06T07:51:03;50.45;;;35.42;;
12591;SDS011;6361;52.120;5.108;2024-03-06T07:53:29;43.33;;;29.05;;
12591;SDS011;6361;52.120;5.108;2024-03-06T07:55:54;48.65;;;33.65;;
12591;SDS011;6361;52.120;5.108;2024-03-06T07:58:20;55.38;;;35.47;;
12591;SDS011;6361;52.120;5.108;2024-03-06T08:00:46;55.20;;;35.72;;
12591;SDS011;6361;52.120;5.108;2024-03-06T08:03:11;53.38;;;35.60;;
12591;SDS011;6361;52.120;5.108;2024-03-06T08:05:38;53.80;;;34.53;;
12591;SDS011;6361;52.120;5.108;2024-03-06T08:08:04;55.75;;;37.78;;
12591;SDS011;6361;52.120;5.108;2024-03-06T08:10:30;63.55;;;42.33;;
12591;SDS011;6361;52.120;5.108;2024-03-06T08:12:56;49.85;;;35.00;;
12591;SDS011;6361;52.120;5.108;2024-03-06T08:15:21;53.40;;;35.90;;
12591;SDS011;6361;52.120;5.108;2024-03-06T08:17:47;50.53;;;34.03;;
12591;SDS011;6361;52.120;5.108;2024-03-06T08:20:14;54.50;;;36.22;;
12591;SDS011;6361;52.120;5.108;2024-03-06T08:22:40;40.97;;;28.13;;
12591;SDS011;6361;52.120;5.108;2024-03-06T08:25:06;51.78;;;35.28;;
12591;SDS011;6361;52.120;5.108;2024-03-06T08:27:33;51.70;;;33.83;;
12591;SDS011;6361;52.120;5.108;2024-03-06T08:29:59;55.42;;;37.72;;
12591;SDS011;6361;52.120;5.108;2024-03-06T08:32:24;47.17;;;30.50;;
12591;SDS011;6361;52.120;5.108;2024-03-06T08:34:50;52.28;;;35.78;;
12591;SDS011;6361;52.120;5.108;2024-03-06T08:37:15;45.28;;;32.20;;
12591;SDS011;6361;52.120;5.108;2024-03-06T08:39:40;47.28;;;33.90;;
12591;SDS011;6361;52.120;5.108;2024-03-06T08:42:08;52.40;;;34.63;;
12591;SDS011;6361;52.120;5.108;2024-03-06T08:44:34;51.88;;;34.42;;
12591;SDS011;6361;52.120;5.108;2024-03-06T08:46:59;49.22;;;33.65;;
12591;SDS011;6361;52.120;5.108;2024-03-06T08:49:24;51.83;;;34.45;;
12591;SDS011;6361;52.120;5.108;2024-03-06T08:51:50;51.35;;;34.47;;
12591;SDS011;6361;52.120;5.108;2024-03-06T08:54:15;49.35;;;33.90;;
12591;SDS011;6361;52.120;5.108;2024-03-06T08:56:42;52.80;;;36.05;;
12591;SDS011;6361;52.120;5.108;2024-03-06T08:59:08;48.75;;;34.40;;
12591;SDS011;6361;52.120;5.108;2024-03-06T09:01:34;46.97;;;33.65;;
12591;SDS011;6361;52.120;5.108;2024-03-06T09:03:59;49.00;;;33.28;;
12591;SDS011;6361;52.120;5.108;2024-03-06T09:06:25;47.13;;;32.33;;
12591;SDS011;6361;52.120;5.108;2024-03-06T09:08:50;49.03;;;33.17;;
12591;SDS011;6361;52.120;5.108;2024-03-06T09:11:15;45.75;;;32.90;;
12591;SDS011;6361;52.120;5.108;2024-03-06T09:13:41;44.70;;;31.65;;
12591;SDS011;6361;52.120;5.108;2024-03-06T09:16:06;41.55;;;31.38;;
12591;SDS011;6361;52.120;5.108;2024-03-06T09:18:32;39.90;;;30.20;;
12591;SDS011;6361;52.120;5.108;2024-03-06T09:20:57;44.83;;;31.15;;
12591;SDS011;6361;52.120;5.108;2024-03-06T09:23:22;41.47;;;31.15;;
12591;SDS011;6361;52.120;5.108;2024-03-06T09:25:48;41.60;;;29.98;;
12591;SDS011;6361;52.120;5.108;2024-03-06T09:28:14;44.83;;;31.27;;
12591;SDS011;6361;52.120;5.108;2024-03-06T09:30:39;41.22;;;30.02;;
12591;SDS011;6361;52.120;5.108;2024-03-06T09:33:06;42.55;;;30.02;;
12591;SDS011;6361;52.120;5.108;2024-03-06T09:35:32;41.58;;;30.98;;
12591;SDS011;6361;52.120;5.108;2024-03-06T09:37:57;42.53;;;31.02;;
12591;SDS011;6361;52.120;5.108;2024-03-06T09:40:23;44.47;;;31.92;;
12591;SDS011;6361;52.120;5.108;2024-03-06T09:42:49;46.85;;;32.58;;
12591;SDS011;6361;52.120;5.108;2024-03-06T09:45:15;45.15;;;30.98;;
12591;SDS011;6361;52.120;5.108;2024-03-06T09:47:41;44.20;;;31.67;;
12591;SDS011;6361;52.120;5.108;2024-03-06T09:50:08;41.45;;;30.25;;
12591;SDS011;6361;52.120;5.108;2024-03-06T09:52:34;42.03;;;29.95;;
12591;SDS011;6361;52.120;5.108;2024-03-06T09:55:01;41.17;;;29.35;;
12591;SDS011;6361;52.120;5.108;2024-03-06T09:57:28;40.72;;;29.45;;
12591;SDS011;6361;52.120;5.108;2024-03-06T09:59:53;41.65;;;30.23;;
12591;SDS011;6361;52.120;5.108;2024-03-06T10:02:35;43.80;;;30.65;;
12591;SDS011;6361;52.120;5.108;2024-03-06T10:05:03;43.65;;;30.88;;
12591;SDS011;6361;52.120;5.108;2024-03-06T10:07:30;43.15;;;30.75;;
12591;SDS011;6361;52.120;5.108;2024-03-06T10:09:56;42.38;;;30.60;;
12591;SDS011;6361;52.120;5.108;2024-03-06T10:12:22;43.17;;;31.55;;
12591;SDS011;6361;52.120;5.108;2024-03-06T10:14:50;40.42;;;29.23;;
12591;SDS011;6361;52.120;5.108;2024-03-06T10:17:20;38.40;;;28.00;;
12591;SDS011;6361;52.120;5.108;2024-03-06T10:19:48;39.10;;;28.73;;
12591;SDS011;6361;52.120;5.108;2024-03-06T10:22:17;39.22;;;28.98;;
12591;SDS011;6361;52.120;5.108;2024-03-06T10:24:46;37.83;;;28.58;;
12591;SDS011;6361;52.120;5.108;2024-03-06T10:27:15;36.60;;;28.08;;
12591;SDS011;6361;52.120;5.108;2024-03-06T10:29:44;37.88;;;27.52;;
12591;SDS011;6361;52.120;5.108;2024-03-06T10:32:09;35.25;;;26.38;;
12591;SDS011;6361;52.120;5.108;2024-03-06T10:34:36;33.03;;;25.60;;
12591;SDS011;6361;52.120;5.108;2024-03-06T10:37:02;34.75;;;25.13;;
12591;SDS011;6361;52.120;5.108;2024-03-06T10:39:34;33.90;;;25.35;;
12591;SDS011;6361;52.120;5.108;2024-03-06T10:42:02;32.13;;;25.35;;
12591;SDS011;6361;52.120;5.108;2024-03-06T10:44:27;30.30;;;23.58;;
12591;SDS011;6361;52.120;5.108;2024-03-06T10:46:58;31.00;;;23.73;;
12591;SDS011;6361;52.120;5.108;2024-03-06T10:49:28;32.25;;;24.23;;
12591;SDS011;6361;52.120;5.108;2024-03-06T10:52:02;32.47;;;24.20;;
12591;SDS011;6361;52.120;5.108;2024-03-06T10:54:32;31.80;;;23.90;;
12591;SDS011;6361;52.120;5.108;2024-03-06T10:56:59;31.42;;;24.45;;
12591;SDS011;6361;52.120;5.108;2024-03-06T10:59:26;32.03;;;24.95;;
12591;SDS011;6361;52.120;5.108;2024-03-06T11:01:53;33.42;;;24.88;;
12591;SDS011;6361;52.120;5.108;2024-03-06T11:04:19;32.08;;;24.75;;
12591;SDS011;6361;52.120;5.108;2024-03-06T11:06:45;30.90;;;23.92;;
12591;SDS011;6361;52.120;5.108;2024-03-06T11:09:10;36.22;;;24.75;;
12591;SDS011;6361;52.120;5.108;2024-03-06T11:11:49;32.30;;;23.92;;
12591;SDS011;6361;52.120;5.108;2024-03-06T11:14:16;34.97;;;24.70;;
12591;SDS011;6361;52.120;5.108;2024-03-06T11:28:11;27.73;;;21.15;;
12591;SDS011;6361;52.120;5.108;2024-03-06T11:30:44;31.50;;;22.38;;
12591;SDS011;6361;52.120;5.108;2024-03-06T11:33:12;33.40;;;23.75;;
12591;SDS011;6361;52.120;5.108;2024-03-06T11:35:40;28.40;;;21.58;;
12591;SDS011;6361;52.120;5.108;2024-03-06T11:38:08;31.77;;;21.67;;
12591;SDS011;6361;52.120;5.108;2024-03-06T11:40:42;30.52;;;22.27;;
12591;SDS011;6361;52.120;5.108;2024-03-06T11:43:24;27.05;;;21.58;;
12591;SDS011;6361;52.120;5.108;2024-03-06T11:45:50;31.00;;;21.05;;
12591;SDS011;6361;52.120;5.108;2024-03-06T11:48:15;30.90;;;21.60;;
12591;SDS011;6361;52.120;5.108;2024-03-06T11:50:42;30.27;;;21.92;;
12591;SDS011;6361;52.120;5.108;2024-03-06T11:53:08;28.42;;;21.02;;
12591;SDS011;6361;52.120;5.108;2024-03-06T11:55:33;26.75;;;20.95;;
12591;SDS011;6361;52.120;5.108;2024-03-06T11:57:59;28.80;;;20.90;;
12591;SDS011;6361;52.120;5.108;2024-03-06T12:00:24;27.58;;;19.55;;
12591;SDS011;6361;52.120;5.108;2024-03-06T12:02:50;27.23;;;19.80;;
12591;SDS011;6361;52.120;5.108;2024-03-06T12:05:17;25.08;;;18.13;;
12591;SDS011;6361;52.120;5.108;2024-03-06T12:08:00;25.25;;;16.85;;
12591;SDS011;6361;52.120;5.108;2024-03-06T12:10:26;22.98;;;16.83;;
12591;SDS011;6361;52.120;5.108;2024-03-06T12:12:51;24.40;;;16.23;;
12591;SDS011;6361;52.120;5.108;2024-03-06T12:15:17;27.02;;;17.65;;
12591;SDS011;6361;52.120;5.108;2024-03-06T12:17:44;20.17;;;14.13;;
12591;SDS011;6361;52.120;5.108;2024-03-06T12:20:13;17.77;;;13.32;;
12591;SDS011;6361;52.120;5.108;2024-03-06T12:22:48;19.42;;;14.35;;
12591;SDS011;6361;52.120;5.108;2024-03-06T12:25:18;21.65;;;13.82;;
12591;SDS011;6361;52.120;5.108;2024-03-06T12:27:47;21.00;;;15.60;;
12591;SDS011;6361;52.120;5.108;2024-03-06T12:30:13;25.58;;;17.17;;
12591;SDS011;6361;52.120;5.108;2024-03-06T12:32:43;23.25;;;17.80;;
12591;SDS011;6361;52.120;5.108;2024-03-06T12:35:29;23.83;;;16.40;;
12591;SDS011;6361;52.120;5.108;2024-03-06T12:37:55;22.35;;;18.02;;
12591;SDS011;6361;52.120;5.108;2024-03-06T12:40:20;21.25;;;14.50;;
12591;SDS011;6361;52.120;5.108;2024-03-06T12:42:46;21.45;;;16.00;;
12591;SDS011;6361;52.120;5.108;2024-03-06T12:45:12;22.02;;;16.83;;
12591;SDS011;6361;52.120;5.108;2024-03-06T12:47:42;20.80;;;15.30;;
12591;SDS011;6361;52.120;5.108;2024-03-06T12:50:07;16.90;;;13.55;;
12591;SDS011;6361;52.120;5.108;2024-03-06T12:52:34;16.15;;;11.50;;
12591;SDS011;6361;52.120;5.108;2024-03-06T12:55:00;17.00;;;12.55;;
12591;SDS011;6361;52.120;5.108;2024-03-06T12:57:25;17.65;;;13.90;;
12591;SDS011;6361;52.120;5.108;2024-03-06T12:59:52;17.48;;;14.30;;
12591;SDS011;6361;52.120;5.108;2024-03-06T13:02:18;15.20;;;12.13;;
12591;SDS011;6361;52.120;5.108;2024-03-06T13:04:43;19.08;;;13.93;;
12591;SDS011;6361;52.120;5.108;2024-03-06T13:07:08;19.58;;;13.68;;
12591;SDS011;6361;52.120;5.108;2024-03-06T13:09:34;15.77;;;12.13;;
12591;SDS011;6361;52.120;5.108;2024-03-06T13:11:59;16.73;;;9.80;;
12591;SDS011;6361;52.120;5.108;2024-03-06T13:14:24;15.38;;;9.80;;
12591;SDS011;6361;52.120;5.108;2024-03-06T13:16:50;14.15;;;9.98;;
12591;SDS011;6361;52.120;5.108;2024-03-06T13:19:15;11.82;;;9.20;;
12591;SDS011;6361;52.120;5.108;2024-03-06T13:21:40;13.10;;;10.30;;
12591;SDS011;6361;52.120;5.108;2024-03-06T13:24:06;14.75;;;10.40;;
12591;SDS011;6361;52.120;5.108;2024-03-06T13:26:31;13.52;;;10.50;;
12591;SDS011;6361;52.120;5.108;2024-03-06T13:28:57;13.57;;;10.20;;
12591;SDS011;6361;52.120;5.108;2024-03-06T13:31:22;12.32;;;9.85;;
12591;SDS011;6361;52.120;5.108;2024-03-06T13:33:48;12.85;;;10.75;;
12591;SDS011;6361;52.120;5.108;2024-03-06T13:36:14;13.18;;;10.38;;
12591;SDS011;6361;52.120;5.108;2024-03-06T13:38:40;14.40;;;11.20;;
12591;SDS011;6361;52.120;5.108;2024-03-06T13:41:05;15.05;;;11.45;;
12591;SDS011;6361;52.120;5.108;2024-03-06T13:43:30;14.85;;;10.82;;
12591;SDS011;6361;52.120;5.108;2024-03-06T13:45:56;12.73;;;9.43;;
12591;SDS011;6361;52.120;5.108;2024-03-06T13:48:22;15.98;;;9.35;;
12591;SDS011;6361;52.120;5.108;2024-03-06T13:50:47;13.02;;;9.70;;
12591;SDS011;6361;52.120;5.108;2024-03-06T13:53:13;13.40;;;9.70;;
12591;SDS011;6361;52.120;5.108;2024-03-06T13:55:38;13.77;;;10.52;;
12591;SDS011;6361;52.120;5.108;2024-03-06T13:58:05;12.75;;;10.30;;
12591;SDS011;6361;52.120;5.108;2024-03-06T14:00:30;13.25;;;10.75;;
12591;SDS011;6361;52.120;5.108;2024-03-06T14:02:56;11.98;;;9.60;;
12591;SDS011;6361;52.120;5.108;2024-03-06T14:05:21;16.55;;;11.25;;
12591;SDS011;6361;52.120;5.108;2024-03-06T14:07:50;13.65;;;9.63;;
12591;SDS011;6361;52.120;5.108;2024-03-06T14:10:16;6.70;;;4.95;;
12591;SDS011;6361;52.120;5.108;2024-03-06T14:12:44;9.30;;;6.38;;
12591;SDS011;6361;52.120;5.108;2024-03-06T14:15:09;10.45;;;7.00;;
12591;SDS011;6361;52.120;5.108;2024-03-06T14:17:38;8.77;;;6.45;;
12591;SDS011;6361;52.120;5.108;2024-03-06T14:20:06;11.13;;;8.35;;
12591;SDS011;6361;52.120;5.108;2024-03-06T14:22:33;10.38;;;7.93;;
12591;SDS011;6361;52.120;5.108;2024-03-06T14:24:58;9.95;;;7.00;;
12591;SDS011;6361;52.120;5.108;2024-03-06T14:27:24;8.18;;;6.68;;
12591;SDS011;6361;52.120;5.108;2024-03-06T14:29:49;7.72;;;5.25;;
12591;SDS011;6361;52.120;5.108;2024-03-06T14:32:16;7.82;;;4.78;;
12591;SDS011;6361;52.120;5.108;2024-03-06T14:34:43;8.27;;;5.80;;
12591;SDS011;6361;52.120;5.108;2024-03-06T14:37:09;8.75;;;6.07;;
12591;SDS011;6361;52.120;5.108;2024-03-06T14:39:34;11.10;;;7.50;;
12591;SDS011;6361;52.120;5.108;2024-03-06T14:42:00;11.68;;;7.50;;